Leigh, Nebraska
Current Conditions -  °F | °C
As of 10:35 AM on Friday 19 Dec 2014 (Local Time) from KOLU Reporting Station
Overcast Overcast  
Wind Chill: 23°   Ceiling: 1100
Heat Index: 30°   Visibility: 9mi
Dew Point: 25°   Wind: 8mph
Humidity: 80%   Direction: 190°S
Pressure: 30.2"   Gusts: NA
Location:  41.71°N, 97.24°W
Report Text: KOLU 191635Z AUTO 19007KT 9SM OVC011 M01/M04 A3020 RMK AO1
Loading
Personal Weather Stations






























Interactive Weather Map New forecast layout! Learn more

10-Day Weather Forecast

Advertisements
Track Severe Weather on mobile